sensor_id;sensor_type;location;lat;lon;timestamp;pressure;altitude;pressure_sealevel;temperature;humidity
57574;BME280;68988;49.000;21.242;2023-08-07T00:00:22;97329.44;;;27.12;45.86
57574;BME280;68988;49.000;21.242;2023-08-07T00:02:47;97331.66;;;27.10;46.06
57574;BME280;68988;49.000;21.242;2023-08-07T00:05:13;97320.09;;;27.09;45.62
57574;BME280;68988;49.000;21.242;2023-08-07T00:07:38;97325.47;;;27.09;45.75
57574;BME280;68988;49.000;21.242;2023-08-07T00:10:04;97321.53;;;27.07;45.90
57574;BME280;68988;49.000;21.242;2023-08-07T00:12:29;97312.34;;;27.08;45.85
57574;BME280;68988;49.000;21.242;2023-08-07T00:14:55;97312.34;;;27.08;45.77
57574;BME280;68988;49.000;21.242;2023-08-07T00:17:20;97311.56;;;27.07;46.08
57574;BME280;68988;49.000;21.242;2023-08-07T00:19:45;97320.41;;;27.08;45.96
57574;BME280;68988;49.000;21.242;2023-08-07T00:22:11;97308.53;;;27.09;45.76
57574;BME280;68988;49.000;21.242;2023-08-07T00:24:36;97305.53;;;27.10;45.63
57574;BME280;68988;49.000;21.242;2023-08-07T00:27:01;97307.91;;;27.12;45.94
57574;BME280;68988;49.000;21.242;2023-08-07T00:29:28;97318.66;;;27.12;45.71
57574;BME280;68988;49.000;21.242;2023-08-07T00:31:53;97315.84;;;27.08;45.79
57574;BME280;68988;49.000;21.242;2023-08-07T00:34:18;97313.94;;;27.09;45.66
57574;BME280;68988;49.000;21.242;2023-08-07T00:36:44;97317.06;;;27.11;45.52
57574;BME280;68988;49.000;21.242;2023-08-07T00:39:09;97325.78;;;27.08;45.62
57574;BME280;68988;49.000;21.242;2023-08-07T00:41:34;97321.22;;;27.08;45.56
57574;BME280;68988;49.000;21.242;2023-08-07T00:44:00;97321.69;;;27.10;45.50
57574;BME280;68988;49.000;21.242;2023-08-07T00:46:26;97318.22;;;27.10;45.51
57574;BME280;68988;49.000;21.242;2023-08-07T00:48:52;97323.91;;;27.08;45.47
57574;BME280;68988;49.000;21.242;2023-08-07T00:51:19;97331.66;;;27.10;45.39
57574;BME280;68988;49.000;21.242;2023-08-07T00:53:45;97331.81;;;27.05;45.55
57574;BME280;68988;49.000;21.242;2023-08-07T00:56:11;97337.69;;;27.07;46.06
57574;BME280;68988;49.000;21.242;2023-08-07T00:58:37;97333.41;;;27.06;45.54
57574;BME280;68988;49.000;21.242;2023-08-07T01:01:02;97339.09;;;27.04;45.79
57574;BME280;68988;49.000;21.242;2023-08-07T01:03:28;97330.38;;;27.07;45.85
57574;BME280;68988;49.000;21.242;2023-08-07T01:05:53;97329.94;;;27.05;45.59
57574;BME280;68988;49.000;21.242;2023-08-07T01:08:19;97328.47;;;27.08;45.42
57574;BME280;68988;49.000;21.242;2023-08-07T01:11:10;97331.50;;;27.06;45.85
57574;BME280;68988;49.000;21.242;2023-08-07T01:16:35;97336.88;;;27.06;45.84
57574;BME280;68988;49.000;21.242;2023-08-07T01:19:03;97345.25;;;27.05;45.55
57574;BME280;68988;49.000;21.242;2023-08-07T01:21:33;97349.84;;;27.04;45.41
57574;BME280;68988;49.000;21.242;2023-08-07T01:23:58;97350.63;;;27.05;45.92
57574;BME280;68988;49.000;21.242;2023-08-07T01:26:24;97361.91;;;27.07;45.88
57574;BME280;68988;49.000;21.242;2023-08-07T01:28:58;97359.84;;;27.04;45.41
57574;BME280;68988;49.000;21.242;2023-08-07T01:31:33;97361.72;;;27.03;45.53
57574;BME280;68988;49.000;21.242;2023-08-07T01:34:07;97369.97;;;27.07;45.85
57574;BME280;68988;49.000;21.242;2023-08-07T01:36:38;97371.38;;;27.04;45.77
57574;BME280;68988;49.000;21.242;2023-08-07T01:39:05;97371.69;;;27.03;45.92
57574;BME280;68988;49.000;21.242;2023-08-07T01:41:32;97367.91;;;27.04;45.55
57574;BME280;68988;49.000;21.242;2023-08-07T01:43:58;97369.00;;;27.03;45.43
57574;BME280;68988;49.000;21.242;2023-08-07T01:46:23;97376.63;;;27.01;45.43
57574;BME280;68988;49.000;21.242;2023-08-07T01:48:49;97379.78;;;27.03;45.62
57574;BME280;68988;49.000;21.242;2023-08-07T01:51:14;97374.84;;;27.05;45.83
57574;BME280;68988;49.000;21.242;2023-08-07T01:53:39;97376.31;;;27.02;45.92
57574;BME280;68988;49.000;21.242;2023-08-07T01:56:05;97385.16;;;27.03;45.82
57574;BME280;68988;49.000;21.242;2023-08-07T01:58:30;97383.56;;;27.02;45.78
57574;BME280;68988;49.000;21.242;2023-08-07T02:00:55;97388.94;;;27.02;45.32
57574;BME280;68988;49.000;21.242;2023-08-07T02:03:21;97384.38;;;27.02;45.72
57574;BME280;68988;49.000;21.242;2023-08-07T02:05:46;97388.94;;;27.02;45.66
57574;BME280;68988;49.000;21.242;2023-08-07T02:08:12;97389.75;;;27.02;45.55
57574;BME280;68988;49.000;21.242;2023-08-07T02:10:37;97397.00;;;27.02;45.42
57574;BME280;68988;49.000;21.242;2023-08-07T02:13:03;97396.69;;;27.03;45.35
57574;BME280;68988;49.000;21.242;2023-08-07T02:15:28;97399.38;;;27.03;45.72
57574;BME280;68988;49.000;21.242;2023-08-07T02:17:54;97397.50;;;27.04;45.53
57574;BME280;68988;49.000;21.242;2023-08-07T02:20:19;97400.50;;;27.02;45.74
57574;BME280;68988;49.000;21.242;2023-08-07T02:22:44;97403.53;;;27.01;45.79
57574;BME280;68988;49.000;21.242;2023-08-07T02:25:10;97399.56;;;26.98;45.63
57574;BME280;68988;49.000;21.242;2023-08-07T02:27:35;97404.94;;;26.98;45.70
57574;BME280;68988;49.000;21.242;2023-08-07T02:30:00;97411.09;;;26.98;45.92
57574;BME280;68988;49.000;21.242;2023-08-07T02:32:28;97404.63;;;27.00;45.79
57574;BME280;68988;49.000;21.242;2023-08-07T02:34:53;97412.69;;;27.00;45.82
57574;BME280;68988;49.000;21.242;2023-08-07T02:37:18;97412.06;;;27.03;45.29
57574;BME280;68988;49.000;21.242;2023-08-07T02:39:45;97413.00;;;27.07;45.34
57574;BME280;68988;49.000;21.242;2023-08-07T02:42:11;97402.88;;;27.04;45.60
57574;BME280;68988;49.000;21.242;2023-08-07T02:44:36;97404.94;;;26.98;45.43
57574;BME280;68988;49.000;21.242;2023-08-07T02:47:02;97403.97;;;27.03;45.32
57574;BME280;68988;49.000;21.242;2023-08-07T02:49:27;97410.47;;;27.02;45.67
57574;BME280;68988;49.000;21.242;2023-08-07T02:51:52;97406.69;;;27.03;45.90
57574;BME280;68988;49.000;21.242;2023-08-07T02:54:18;97407.31;;;27.00;45.66
57574;BME280;68988;49.000;21.242;2023-08-07T02:56:43;97407.78;;;27.02;45.35
57574;BME280;68988;49.000;21.242;2023-08-07T02:59:08;97412.69;;;27.00;45.73
57574;BME280;68988;49.000;21.242;2023-08-07T03:01:34;97411.09;;;26.98;45.52
57574;BME280;68988;49.000;21.242;2023-08-07T03:03:59;97420.75;;;27.00;45.81
57574;BME280;68988;49.000;21.242;2023-08-07T03:06:24;97425.03;;;27.01;45.58
57574;BME280;68988;49.000;21.242;2023-08-07T03:08:50;97411.91;;;26.99;45.38
57574;BME280;68988;49.000;21.242;2023-08-07T03:11:15;97416.66;;;27.02;45.62
57574;BME280;68988;49.000;21.242;2023-08-07T03:13:41;97412.38;;;27.01;45.50
57574;BME280;68988;49.000;21.242;2023-08-07T03:16:07;97421.22;;;27.02;45.70
57574;BME280;68988;49.000;21.242;2023-08-07T03:18:33;97428.84;;;27.00;45.30
57574;BME280;68988;49.000;21.242;2023-08-07T03:20:59;97426.47;;;26.98;45.44
57574;BME280;68988;49.000;21.242;2023-08-07T03:23:25;97436.44;;;26.97;45.69
57574;BME280;68988;49.000;21.242;2023-08-07T03:26:08;97435.81;;;27.01;45.57
57574;BME280;68988;49.000;21.242;2023-08-07T03:28:34;97438.31;;;26.97;45.50
57574;BME280;68988;49.000;21.242;2023-08-07T03:31:00;97439.91;;;26.98;45.63
57574;BME280;68988;49.000;21.242;2023-08-07T03:33:25;97445.28;;;26.98;45.51
57574;BME280;68988;49.000;21.242;2023-08-07T03:35:51;97445.28;;;26.98;45.46
57574;BME280;68988;49.000;21.242;2023-08-07T03:38:16;97446.56;;;27.01;45.17
57574;BME280;68988;49.000;21.242;2023-08-07T03:40:42;97445.75;;;27.00;45.26
57574;BME280;68988;49.000;21.242;2023-08-07T03:43:07;97442.91;;;26.96;45.84
57574;BME280;68988;49.000;21.242;2023-08-07T03:45:32;97444.50;;;26.97;45.71
57574;BME280;68988;49.000;21.242;2023-08-07T03:47:58;97447.97;;;26.98;45.40
57574;BME280;68988;49.000;21.242;2023-08-07T03:50:23;97446.56;;;27.01;45.62
57574;BME280;68988;49.000;21.242;2023-08-07T03:52:49;97446.06;;;26.98;45.30
57574;BME280;68988;49.000;21.242;2023-08-07T03:55:14;97448.94;;;26.93;45.52
57574;BME280;68988;49.000;21.242;2023-08-07T03:57:39;97453.34;;;26.98;45.76
57574;BME280;68988;49.000;21.242;2023-08-07T04:00:05;97450.97;;;26.96;45.42
57574;BME280;68988;49.000;21.242;2023-08-07T04:02:31;97452.41;;;26.94;45.88
57574;BME280;68988;49.000;21.242;2023-08-07T04:04:56;97458.75;;;26.98;45.62
57574;BME280;68988;49.000;21.242;2023-08-07T04:07:22;97458.75;;;26.98;45.25
57574;BME280;68988;49.000;21.242;2023-08-07T04:09:47;97457.97;;;26.97;45.15
57574;BME280;68988;49.000;21.242;2023-08-07T04:12:13;97459.38;;;26.95;45.35
57574;BME280;68988;49.000;21.242;2023-08-07T04:14:38;97455.91;;;26.94;45.76
57574;BME280;68988;49.000;21.242;2023-08-07T04:17:03;97461.75;;;26.96;45.52
57574;BME280;68988;49.000;21.242;2023-08-07T04:19:29;97463.66;;;26.96;45.42
57574;BME280;68988;49.000;21.242;2023-08-07T04:21:54;97467.13;;;26.96;45.50
57574;BME280;68988;49.000;21.242;2023-08-07T04:24:19;97467.59;;;26.98;45.34
57574;BME280;68988;49.000;21.242;2023-08-07T04:26:45;97460.78;;;26.92;45.40
57574;BME280;68988;49.000;21.242;2023-08-07T04:29:10;97464.75;;;26.95;45.60
57574;BME280;68988;49.000;21.242;2023-08-07T04:31:35;97459.69;;;26.93;45.41
57574;BME280;68988;49.000;21.242;2023-08-07T04:34:01;97466.97;;;26.93;45.40
57574;BME280;68988;49.000;21.242;2023-08-07T04:36:26;97465.72;;;26.99;45.65
57574;BME280;68988;49.000;21.242;2023-08-07T04:38:52;97463.81;;;27.00;45.74
57574;BME280;68988;49.000;21.242;2023-08-07T04:41:17;97462.38;;;26.93;45.89
57574;BME280;68988;49.000;21.242;2023-08-07T04:43:42;97465.06;;;26.93;45.33
57574;BME280;68988;49.000;21.242;2023-08-07T04:46:11;97457.00;;;26.93;45.76
57574;BME280;68988;49.000;21.242;2023-08-07T04:48:37;97458.09;;;26.92;45.40
57574;BME280;68988;49.000;21.242;2023-08-07T04:51:02;97463.16;;;26.94;45.21
57574;BME280;68988;49.000;21.242;2023-08-07T04:53:28;97474.72;;;26.94;45.46
57574;BME280;68988;49.000;21.242;2023-08-07T04:55:53;97473.97;;;26.05;46.65
57574;BME280;68988;49.000;21.242;2023-08-07T04:58:19;97477.44;;;25.15;48.36
57574;BME280;68988;49.000;21.242;2023-08-07T05:00:44;97479.50;;;24.54;49.72
57574;BME280;68988;49.000;21.242;2023-08-07T05:03:10;97485.63;;;24.12;51.21
57574;BME280;68988;49.000;21.242;2023-08-07T05:05:35;97480.22;;;23.85;51.91
57574;BME280;68988;49.000;21.242;2023-08-07T05:08:01;97483.13;;;23.69;52.62
57574;BME280;68988;49.000;21.242;2023-08-07T05:10:26;97490.44;;;23.50;53.22
57574;BME280;68988;49.000;21.242;2023-08-07T05:12:51;97485.22;;;23.39;53.61
57574;BME280;68988;49.000;21.242;2023-08-07T05:15:24;97482.00;;;23.23;53.95
57574;BME280;68988;49.000;21.242;2023-08-07T05:17:50;97487.59;;;23.03;54.65
57574;BME280;68988;49.000;21.242;2023-08-07T05:20:15;97485.09;;;23.12;54.33
57574;BME280;68988;49.000;21.242;2023-08-07T05:22:41;97488.44;;;22.98;54.87
57574;BME280;68988;49.000;21.242;2023-08-07T05:25:07;97490.75;;;22.86;55.39
57574;BME280;68988;49.000;21.242;2023-08-07T05:27:34;97495.69;;;22.79;55.91
57574;BME280;68988;49.000;21.242;2023-08-07T05:30:00;97492.94;;;22.84;56.22
57574;BME280;68988;49.000;21.242;2023-08-07T05:32:25;97491.31;;;22.83;55.84
57574;BME280;68988;49.000;21.242;2023-08-07T05:34:51;97489.81;;;22.77;55.56
57574;BME280;68988;49.000;21.242;2023-08-07T05:37:16;97497.03;;;22.52;56.89
57574;BME280;68988;49.000;21.242;2023-08-07T05:39:41;97503.38;;;22.37;57.41
57574;BME280;68988;49.000;21.242;2023-08-07T05:42:07;97496.06;;;22.43;57.17
57574;BME280;68988;49.000;21.242;2023-08-07T05:44:33;97511.78;;;22.49;57.29
57574;BME280;68988;49.000;21.242;2023-08-07T05:46:58;97505.19;;;22.42;57.33
57574;BME280;68988;49.000;21.242;2023-08-07T05:49:24;97511.66;;;22.35;57.43
57574;BME280;68988;49.000;21.242;2023-08-07T05:51:49;97521.16;;;22.47;57.31
57574;BME280;68988;49.000;21.242;2023-08-07T05:54:14;97524.22;;;22.59;56.61
57574;BME280;68988;49.000;21.242;2023-08-07T05:56:40;97515.94;;;22.80;56.53
57574;BME280;68988;49.000;21.242;2023-08-07T05:59:06;97518.31;;;23.05;55.84
57574;BME280;68988;49.000;21.242;2023-08-07T06:01:31;97510.31;;;23.24;55.04
57574;BME280;68988;49.000;21.242;2023-08-07T06:03:57;97510.63;;;23.42;54.25
57574;BME280;68988;49.000;21.242;2023-08-07T06:06:24;97509.94;;;23.50;54.07
57574;BME280;68988;49.000;21.242;2023-08-07T06:08:50;97514.56;;;23.45;54.36
57574;BME280;68988;49.000;21.242;2023-08-07T06:11:15;97519.69;;;23.60;54.24
57574;BME280;68988;49.000;21.242;2023-08-07T06:13:41;97523.38;;;23.64;53.76
57574;BME280;68988;49.000;21.242;2023-08-07T06:16:06;97531.25;;;23.74;53.80
57574;BME280;68988;49.000;21.242;2023-08-07T06:18:32;97525.59;;;23.76;53.55
57574;BME280;68988;49.000;21.242;2023-08-07T06:20:57;97526.59;;;23.80;53.71
57574;BME280;68988;49.000;21.242;2023-08-07T06:23:22;97533.34;;;23.77;53.46
57574;BME280;68988;49.000;21.242;2023-08-07T06:25:48;97532.75;;;23.81;53.11
57574;BME280;68988;49.000;21.242;2023-08-07T06:28:13;97534.19;;;23.92;53.20
57574;BME280;68988;49.000;21.242;2023-08-07T06:30:39;97539.84;;;23.90;53.19
57574;BME280;68988;49.000;21.242;2023-08-07T06:33:04;97540.06;;;23.94;53.65
57574;BME280;68988;49.000;21.242;2023-08-07T06:35:29;97535.28;;;23.91;53.18
57574;BME280;68988;49.000;21.242;2023-08-07T06:37:55;97531.03;;;23.90;53.27
57574;BME280;68988;49.000;21.242;2023-08-07T06:40:20;97531.63;;;23.87;53.61
57574;BME280;68988;49.000;21.242;2023-08-07T06:42:46;97533.63;;;23.95;53.83
57574;BME280;68988;49.000;21.242;2023-08-07T06:45:11;97538.97;;;23.95;53.27
57574;BME280;68988;49.000;21.242;2023-08-07T06:47:36;97533.25;;;24.16;52.90
57574;BME280;68988;49.000;21.242;2023-08-07T06:50:02;97533.16;;;24.07;52.78
57574;BME280;68988;49.000;21.242;2023-08-07T06:52:27;97539.19;;;24.12;52.66
57574;BME280;68988;49.000;21.242;2023-08-07T06:54:52;97544.66;;;24.07;52.67
57574;BME280;68988;49.000;21.242;2023-08-07T06:57:18;97543.56;;;24.08;52.74
57574;BME280;68988;49.000;21.242;2023-08-07T06:59:43;97538.63;;;24.16;52.66
57574;BME280;68988;49.000;21.242;2023-08-07T07:02:09;97547.34;;;24.07;52.69
57574;BME280;68988;49.000;21.242;2023-08-07T07:04:34;97541.09;;;24.12;52.84
57574;BME280;68988;49.000;21.242;2023-08-07T07:07:02;97551.41;;;24.19;52.77
57574;BME280;68988;49.000;21.242;2023-08-07T07:09:27;97554.69;;;24.16;52.46
57574;BME280;68988;49.000;21.242;2023-08-07T07:11:54;97557.59;;;24.19;52.67
57574;BME280;68988;49.000;21.242;2023-08-07T07:14:19;97551.72;;;24.17;52.31
57574;BME280;68988;49.000;21.242;2023-08-07T07:16:45;97556.28;;;24.17;52.37
57574;BME280;68988;49.000;21.242;2023-08-07T07:19:10;97557.94;;;24.12;52.44
57574;BME280;68988;49.000;21.242;2023-08-07T07:21:36;97561.50;;;24.08;52.30
57574;BME280;68988;49.000;21.242;2023-08-07T07:24:02;97561.81;;;24.06;52.57
57574;BME280;68988;49.000;21.242;2023-08-07T07:26:27;97565.78;;;24.09;52.48
57574;BME280;68988;49.000;21.242;2023-08-07T07:28:53;97567.59;;;24.13;52.39
57574;BME280;68988;49.000;21.242;2023-08-07T07:31:18;97579.19;;;24.09;53.00
57574;BME280;68988;49.000;21.242;2023-08-07T07:33:43;97578.88;;;24.10;52.55
57574;BME280;68988;49.000;21.242;2023-08-07T07:36:18;97586.91;;;24.10;52.39
57574;BME280;68988;49.000;21.242;2023-08-07T07:38:47;97588.38;;;24.03;52.71
57574;BME280;68988;49.000;21.242;2023-08-07T07:41:16;97587.00;;;24.05;52.31
57574;BME280;68988;49.000;21.242;2023-08-07T07:43:42;97585.91;;;24.06;52.62
57574;BME280;68988;49.000;21.242;2023-08-07T07:46:08;97581.06;;;24.08;52.55
57574;BME280;68988;49.000;21.242;2023-08-07T07:48:34;97581.22;;;23.98;52.34
57574;BME280;68988;49.000;21.242;2023-08-07T07:51:00;97584.03;;;24.07;52.60
57574;BME280;68988;49.000;21.242;2023-08-07T07:53:26;97580.19;;;24.13;52.15
57574;BME280;68988;49.000;21.242;2023-08-07T07:55:52;97585.16;;;24.20;51.94
57574;BME280;68988;49.000;21.242;2023-08-07T07:58:17;97585.25;;;24.15;51.69
57574;BME280;68988;49.000;21.242;2023-08-07T08:00:43;97591.00;;;24.22;52.03
57574;BME280;68988;49.000;21.242;2023-08-07T08:03:08;97589.59;;;24.10;51.90
57574;BME280;68988;49.000;21.242;2023-08-07T08:05:34;97592.41;;;24.19;51.58
57574;BME280;68988;49.000;21.242;2023-08-07T08:08:00;97594.28;;;24.19;51.56
57574;BME280;68988;49.000;21.242;2023-08-07T08:10:26;97593.44;;;24.04;51.99
57574;BME280;68988;49.000;21.242;2023-08-07T08:12:52;97601.88;;;23.98;52.24
57574;BME280;68988;49.000;21.242;2023-08-07T08:15:17;97596.13;;;24.04;52.07
57574;BME280;68988;49.000;21.242;2023-08-07T08:17:42;97602.41;;;24.13;51.81
57574;BME280;68988;49.000;21.242;2023-08-07T08:20:08;97603.72;;;24.16;52.50
57574;BME280;68988;49.000;21.242;2023-08-07T08:22:34;97605.50;;;24.21;51.35
57574;BME280;68988;49.000;21.242;2023-08-07T08:25:00;97599.28;;;24.06;51.13
57574;BME280;68988;49.000;21.242;2023-08-07T08:27:25;97604.88;;;24.10;51.29
57574;BME280;68988;49.000;21.242;2023-08-07T08:29:50;97593.16;;;24.06;51.59
57574;BME280;68988;49.000;21.242;2023-08-07T08:32:16;97601.31;;;24.15;51.54
57574;BME280;68988;49.000;21.242;2023-08-07T08:34:41;97593.34;;;24.09;51.41
57574;BME280;68988;49.000;21.242;2023-08-07T08:37:06;97588.41;;;24.17;51.45
57574;BME280;68988;49.000;21.242;2023-08-07T08:39:33;97589.59;;;24.10;51.61
57574;BME280;68988;49.000;21.242;2023-08-07T08:41:59;97584.66;;;24.18;51.27
57574;BME280;68988;49.000;21.242;2023-08-07T08:44:24;97582.25;;;24.02;51.43
57574;BME280;68988;49.000;21.242;2023-08-07T08:46:51;97580.06;;;24.04;51.22
57574;BME280;68988;49.000;21.242;2023-08-07T08:49:24;97583.84;;;24.17;51.26
57574;BME280;68988;49.000;21.242;2023-08-07T08:51:51;97587.25;;;24.23;51.53
57574;BME280;68988;49.000;21.242;2023-08-07T08:54:17;97574.13;;;24.07;51.17
57574;BME280;68988;49.000;21.242;2023-08-07T08:56:43;97585.53;;;24.13;50.95
57574;BME280;68988;49.000;21.242;2023-08-07T08:59:10;97581.56;;;24.10;50.99
57574;BME280;68988;49.000;21.242;2023-08-07T09:01:36;97582.34;;;24.11;50.85
57574;BME280;68988;49.000;21.242;2023-08-07T09:04:02;97568.41;;;24.28;50.40
57574;BME280;68988;49.000;21.242;2023-08-07T09:06:31;97581.91;;;24.37;50.18
57574;BME280;68988;49.000;21.242;2023-08-07T09:08:58;97573.47;;;24.43;50.32
57574;BME280;68988;49.000;21.242;2023-08-07T09:11:24;97577.06;;;24.53;50.06
57574;BME280;68988;49.000;21.242;2023-08-07T09:13:50;97564.66;;;24.57;49.63
57574;BME280;68988;49.000;21.242;2023-08-07T09:16:16;97568.44;;;24.56;49.54
57574;BME280;68988;49.000;21.242;2023-08-07T09:18:42;97569.06;;;24.66;49.65
57574;BME280;68988;49.000;21.242;2023-08-07T09:21:08;97568.69;;;24.73;49.67
57574;BME280;68988;49.000;21.242;2023-08-07T09:23:34;97571.06;;;24.75;49.74
57574;BME280;68988;49.000;21.242;2023-08-07T09:26:01;97577.41;;;24.79;49.44
57574;BME280;68988;49.000;21.242;2023-08-07T09:28:28;97576.63;;;24.78;49.71
57574;BME280;68988;49.000;21.242;2023-08-07T09:30:54;97586.75;;;24.81;49.55
57574;BME280;68988;49.000;21.242;2023-08-07T09:33:26;97586.16;;;24.84;49.44
57574;BME280;68988;49.000;21.242;2023-08-07T09:35:53;97581.38;;;24.81;48.89
57574;BME280;68988;49.000;21.242;2023-08-07T09:38:22;97582.16;;;24.68;49.11
57574;BME280;68988;49.000;21.242;2023-08-07T09:40:48;97574.25;;;24.77;49.25
57574;BME280;68988;49.000;21.242;2023-08-07T09:43:20;97570.19;;;24.79;49.05
57574;BME280;68988;49.000;21.242;2023-08-07T09:45:46;97570.66;;;24.81;49.40
57574;BME280;68988;49.000;21.242;2023-08-07T09:48:11;97568.56;;;24.78;49.27
57574;BME280;68988;49.000;21.242;2023-08-07T09:50:38;97563.50;;;24.77;49.64
57574;BME280;68988;49.000;21.242;2023-08-07T09:53:03;97563.22;;;24.78;49.50
57574;BME280;68988;49.000;21.242;2023-08-07T09:55:28;97554.88;;;24.80;49.27
57574;BME280;68988;49.000;21.242;2023-08-07T09:57:54;97570.47;;;24.78;49.51
57574;BME280;68988;49.000;21.242;2023-08-07T10:00:20;97578.31;;;24.74;50.14
57574;BME280;68988;49.000;21.242;2023-08-07T10:02:47;97590.72;;;24.70;50.75
57574;BME280;68988;49.000;21.242;2023-08-07T10:05:13;97585.97;;;24.67;50.56
57574;BME280;68988;49.000;21.242;2023-08-07T10:07:39;97583.19;;;24.72;50.61
57574;BME280;68988;49.000;21.242;2023-08-07T10:10:06;97581.38;;;24.67;51.45
57574;BME280;68988;49.000;21.242;2023-08-07T10:12:32;97595.09;;;24.66;51.29
57574;BME280;68988;49.000;21.242;2023-08-07T10:15:01;97594.69;;;24.73;51.15
57574;BME280;68988;49.000;21.242;2023-08-07T10:17:27;97596.28;;;24.74;51.10
57574;BME280;68988;49.000;21.242;2023-08-07T10:19:53;97609.38;;;24.75;50.57
57574;BME280;68988;49.000;21.242;2023-08-07T10:22:19;97611.59;;;24.73;50.57
57574;BME280;68988;49.000;21.242;2023-08-07T10:24:47;97611.38;;;24.83;50.26
57574;BME280;68988;49.000;21.242;2023-08-07T10:27:15;97602.66;;;24.78;50.49
57574;BME280;68988;49.000;21.242;2023-08-07T10:29:42;97601.34;;;24.75;50.64
57574;BME280;68988;49.000;21.242;2023-08-07T10:32:10;97604.72;;;24.81;50.56
57574;BME280;68988;49.000;21.242;2023-08-07T10:34:37;97601.75;;;24.82;50.79
57574;BME280;68988;49.000;21.242;2023-08-07T10:37:06;97610.78;;;24.87;50.31
57574;BME280;68988;49.000;21.242;2023-08-07T10:39:31;97613.56;;;24.81;50.53
57574;BME280;68988;49.000;21.242;2023-08-07T10:41:57;97600.88;;;24.87;50.37
57574;BME280;68988;49.000;21.242;2023-08-07T10:44:30;97591.91;;;24.92;50.16
57574;BME280;68988;49.000;21.242;2023-08-07T10:46:57;97595.19;;;24.89;50.49
57574;BME280;68988;49.000;21.242;2023-08-07T10:51:58;97607.13;;;24.96;50.25
57574;BME280;68988;49.000;21.242;2023-08-07T10:54:24;97605.72;;;24.99;50.12
57574;BME280;68988;49.000;21.242;2023-08-07T10:56:54;97620.13;;;25.03;50.19
57574;BME280;68988;49.000;21.242;2023-08-07T10:59:22;97625.47;;;25.03;50.14
57574;BME280;68988;49.000;21.242;2023-08-07T11:01:51;97631.75;;;24.98;50.44
57574;BME280;68988;49.000;21.242;2023-08-07T11:04:17;97632.03;;;24.97;50.08
57574;BME280;68988;49.000;21.242;2023-08-07T11:06:46;97635.50;;;24.83;50.50
57574;BME280;68988;49.000;21.242;2023-08-07T11:09:12;97631.63;;;24.90;50.18
57574;BME280;68988;49.000;21.242;2023-08-07T11:11:48;97632.81;;;24.97;50.20
57574;BME280;68988;49.000;21.242;2023-08-07T11:14:18;97632.53;;;24.99;49.93
57574;BME280;68988;49.000;21.242;2023-08-07T11:16:45;97637.69;;;24.95;50.21
57574;BME280;68988;49.000;21.242;2023-08-07T11:19:13;97629.66;;;24.95;49.89
57574;BME280;68988;49.000;21.242;2023-08-07T11:21:40;97630.06;;;24.89;50.63
57574;BME280;68988;49.000;21.242;2023-08-07T11:24:05;97625.47;;;24.89;50.41
57574;BME280;68988;49.000;21.242;2023-08-07T11:26:31;97620.41;;;24.88;50.23
57574;BME280;68988;49.000;21.242;2023-08-07T11:28:57;97619.63;;;24.87;50.23
57574;BME280;68988;49.000;21.242;2023-08-07T11:31:24;97626.06;;;24.86;50.39
57574;BME280;68988;49.000;21.242;2023-08-07T11:33:51;97622.03;;;24.89;50.24
57574;BME280;68988;49.000;21.242;2023-08-07T11:36:17;97641.75;;;24.93;50.29
57574;BME280;68988;49.000;21.242;2023-08-07T11:38:43;97648.13;;;24.97;49.82
57574;BME280;68988;49.000;21.242;2023-08-07T11:41:11;97656.78;;;24.94;50.39
57574;BME280;68988;49.000;21.242;2023-08-07T11:43:37;97655.88;;;24.98;49.86
57574;BME280;68988;49.000;21.242;2023-08-07T11:46:14;97662.84;;;24.99;49.85
57574;BME280;68988;49.000;21.242;2023-08-07T11:48:41;97658.97;;;24.92;49.34
57574;BME280;68988;49.000;21.242;2023-08-07T11:51:07;97669.16;;;24.90;49.41
57574;BME280;68988;49.000;21.242;2023-08-07T11:53:37;97671.75;;;24.81;49.56
57574;BME280;68988;49.000;21.242;2023-08-07T11:56:10;97664.59;;;24.62;49.97
57574;BME280;68988;49.000;21.242;2023-08-07T11:58:41;97659.63;;;24.70;49.66
57574;BME280;68988;49.000;21.242;2023-08-07T12:01:11;97661.81;;;24.67;50.04
57574;BME280;68988;49.000;21.242;2023-08-07T12:03:40;97661.91;;;24.62;50.54
57574;BME280;68988;49.000;21.242;2023-08-07T12:06:07;97651.88;;;24.68;50.53
57574;BME280;68988;49.000;21.242;2023-08-07T12:08:38;97654.19;;;24.56;50.75
57574;BME280;68988;49.000;21.242;2023-08-07T12:11:05;97663.34;;;24.55;50.92
57574;BME280;68988;49.000;21.242;2023-08-07T12:13:31;97654.19;;;24.56;51.07
57574;BME280;68988;49.000;21.242;2023-08-07T12:16:00;97653.81;;;24.48;50.64
57574;BME280;68988;49.000;21.242;2023-08-07T12:18:27;97649.09;;;24.59;50.76
57574;BME280;68988;49.000;21.242;2023-08-07T12:20:57;97647.09;;;24.65;50.64
57574;BME280;68988;49.000;21.242;2023-08-07T12:23:24;97645.91;;;24.71;50.16
57574;BME280;68988;49.000;21.242;2023-08-07T12:25:49;97650.31;;;24.81;49.51
57574;BME280;68988;49.000;21.242;2023-08-07T12:28:15;97644.84;;;24.86;49.92
57574;BME280;68988;49.000;21.242;2023-08-07T12:30:44;97651.88;;;24.82;49.96
57574;BME280;68988;49.000;21.242;2023-08-07T12:33:10;97649.78;;;24.79;50.00
57574;BME280;68988;49.000;21.242;2023-08-07T12:35:36;97658.75;;;24.88;49.97
57574;BME280;68988;49.000;21.242;2023-08-07T12:38:01;97655.28;;;24.88;48.65
57574;BME280;68988;49.000;21.242;2023-08-07T12:40:28;97655.06;;;24.70;48.71
57574;BME280;68988;49.000;21.242;2023-08-07T12:42:54;97655.66;;;24.48;49.04
57574;BME280;68988;49.000;21.242;2023-08-07T12:45:19;97663.06;;;24.56;48.84
57574;BME280;68988;49.000;21.242;2023-08-07T12:47:45;97665.78;;;24.70;48.73
57574;BME280;68988;49.000;21.242;2023-08-07T12:50:11;97678.31;;;24.75;48.27